This is the latest recevied weather packets stored in our database for station/object Ostrach. If no packets are shown the sender has not sent any weather packets the latest 10 day(s).
| Time | Temp. | Humidity | Pressure | Rain* | Wind** | Luminosity | Snow |
|---|---|---|---|---|---|---|---|
| 1777534332 | 8.33° C | 47% | 1022.2 hPa | 0 mm | - | - | - |
| 1777532532 | 6.67° C | 47% | 1022 hPa | 0 mm | - | - | - |
| 1777530736 | 5.56° C | 52% | 1021.9 hPa | 0 mm | - | - | - |
| 1777528931 | 4.44° C | 53% | 1021.9 hPa | 0 mm | - | - | - |
| 1777527131 | 3.89° C | 56% | 1021.9 hPa | 0 mm | - | - | - |
| 1777525331 | 3.89° C | 58% | 1021.5 hPa | 0 mm | - | - | - |
| 1777523532 | 3.89° C | 58% | 1021.2 hPa | 0 mm | - | - | - |
| 1777521732 | 3.89° C | 58% | 1021.1 hPa | 0 mm | - | - | - |
| 1777519931 | 4.44° C | 57% | 1021.2 hPa | 0 mm | - | - | - |
| 1777518132 | 4.44° C | 56% | 1021.1 hPa | 0 mm | - | - | - |
| 1777514532 | 5.56° C | 52% | 1020.9 hPa | 0 mm | - | - | - |
| 1777512731 | 6.11° C | 50% | 1020.6 hPa | 0 mm | - | - | - |
| 1777510932 | 6.67° C | 49% | 1020.5 hPa | 0 mm | - | - | - |
| 1777509129 | 7.78° C | 46% | 1020.5 hPa | 0 mm | - | - | - |
| 1777507330 | 8.33° C | 45% | 1020.2 hPa | 0 mm | - | - | - |
| 1777505529 | 8.89° C | 44% | 1020.3 hPa | 0 mm | - | - | - |
| 1777503729 | 9.44° C | 42% | 1020.3 hPa | 0 mm | - | - | - |
| 1777501931 | 10° C | 41% | 1020 hPa | 0 mm | - | - | - |
| 1777500129 | 10.56° C | 40% | 1019.6 hPa | 0 mm | - | - | - |
| 1777498329 | 11.11° C | 39% | 1019.6 hPa | 0 mm | - | - | - |
| 1777496530 | 11.11° C | 39% | 1019.3 hPa | 0 mm | - | - | - |
| 1777494730 | 11.67° C | 39% | 1019.1 hPa | 0 mm | - | - | - |
| 1777492929 | 12.22° C | 38% | 1018.9 hPa | 0 mm | - | - | - |
| 1777491129 | 12.78° C | 37% | 1018.5 hPa | 0 mm | - | - | - |
| 1777489330 | 13.33° C | 37% | 1018.2 hPa | 0 mm | - | - | - |
* Rain since midnight (hover to see other rain measurements)
** Current wind speed in m/s (hover to see current wind gust speed)